Time;durP1;ratioP1;P1;durP2;ratioP2;P2;SDS_P1;SDS_P2;PMS_P1;PMS_P2;Temp;Humidity;BMP_temperature;BMP_pressure;BME280_temperature;BME280_humidity;BME280_pressure;Samples;Min_cycle;Max_cycle;Signal;HPM_P1;HPM_P2
2022/07/21 00:01:05;;;;;;;1.30;1.00;;;25.70;56.10;;;;;;5056529;28;20043;-69
2022/07/21 00:03:30;;;;;;;0.80;0.80;;;25.70;56.00;;;;;;5055144;28;20111;-69
2022/07/21 00:05:56;;;;;;;1.17;0.85;;;25.70;56.10;;;;;;5056308;28;20025;-69
2022/07/21 00:08:22;;;;;;;1.05;0.90;;;25.70;56.00;;;;;;5056136;28;20040;-69
2022/07/21 00:10:47;;;;;;;1.73;1.00;;;25.70;56.00;;;;;;5056319;28;20025;-69
2022/07/21 00:13:13;;;;;;;0.98;0.82;;;25.70;56.00;;;;;;5054607;28;20045;-69
2022/07/21 00:15:39;;;;;;;1.13;1.00;;;25.70;56.10;;;;;;5056178;28;20032;-69
2022/07/21 00:18:04;;;;;;;0.82;0.82;;;25.70;56.10;;;;;;5056210;28;20028;-69
2022/07/21 00:20:30;;;;;;;0.88;0.88;;;25.70;56.10;;;;;;5054788;28;20375;-69
2022/07/21 00:22:56;;;;;;;0.95;0.90;;;25.70;56.10;;;;;;5056154;28;20025;-69
2022/07/21 00:25:21;;;;;;;0.75;0.75;;;25.70;56.10;;;;;;5055921;28;20032;-69
2022/07/21 00:27:47;;;;;;;0.80;0.80;;;25.70;56.10;;;;;;5055758;28;20025;-69
2022/07/21 00:30:15;;;;;;;0.70;0.70;;;25.60;56.20;;;;;;5055880;28;20379;-69
2022/07/21 00:32:41;;;;;;;1.13;0.90;;;25.60;56.00;;;;;;5038308;28;20027;-69
2022/07/21 00:35:07;;;;;;;1.38;1.00;;;25.60;56.10;;;;;;5054514;28;20033;-69
2022/07/21 00:37:33;;;;;;;0.68;0.68;;;25.60;56.10;;;;;;5055742;28;20017;-69
2022/07/21 00:39:58;;;;;;;1.00;0.90;;;25.60;56.00;;;;;;5054442;28;20028;-69
2022/07/21 00:42:26;;;;;;;1.08;0.90;;;25.60;56.00;;;;;;5054504;28;20036;-69
2022/07/21 00:44:52;;;;;;;0.90;0.90;;;25.60;56.00;;;;;;5054364;28;20021;-69
2022/07/21 00:47:22;;;;;;;0.95;0.90;;;25.60;56.00;;;;;;5055492;28;20525;-69
2022/07/21 00:49:47;;;;;;;1.08;0.90;;;25.60;56.00;;;;;;5054241;28;20098;-69
2022/07/21 00:52:13;;;;;;;0.80;0.80;;;25.60;56.00;;;;;;5055432;28;20064;-69
2022/07/21 00:54:39;;;;;;;0.82;0.73;;;25.60;56.00;;;;;;5055292;28;20018;-69
2022/07/21 00:57:05;;;;;;;0.75;0.75;;;25.60;56.00;;;;;;5055359;28;20380;-69
2022/07/21 00:59:30;;;;;;;0.77;0.75;;;25.60;56.00;;;;;;5037616;28;20032;-69
2022/07/21 01:01:56;;;;;;;1.08;0.80;;;25.60;56.00;;;;;;5055412;28;20029;-69
2022/07/21 01:04:22;;;;;;;0.80;0.70;;;25.60;56.00;;;;;;5055124;28;20387;-69
2022/07/21 01:06:47;;;;;;;0.75;0.75;;;25.60;56.00;;;;;;5054090;28;20029;-69
2022/07/21 01:09:13;;;;;;;1.05;0.95;;;25.60;56.10;;;;;;5053889;28;20479;-69
2022/07/21 01:11:39;;;;;;;0.70;0.70;;;25.60;56.00;;;;;;5054789;28;20098;-69
2022/07/21 01:14:05;;;;;;;0.70;0.70;;;25.60;56.00;;;;;;5037329;28;20017;-69
2022/07/21 01:16:31;;;;;;;0.95;0.82;;;25.60;56.00;;;;;;5037136;28;20028;-69
2022/07/21 01:18:56;;;;;;;0.93;0.80;;;25.60;56.00;;;;;;5053927;28;20032;-69
2022/07/21 01:21:33;;;;;;;0.93;0.90;;;25.50;56.00;;;;;;5053782;28;20036;-69
2022/07/21 01:23:59;;;;;;;1.15;0.98;;;25.50;56.00;;;;;;5054905;28;20017;-69
2022/07/21 01:26:24;;;;;;;0.98;0.85;;;25.50;56.00;;;;;;5054715;28;20036;-69
2022/07/21 01:28:50;;;;;;;0.63;0.60;;;25.50;56.00;;;;;;5053469;28;20084;-69
2022/07/21 01:31:16;;;;;;;0.82;0.82;;;25.50;56.00;;;;;;5053550;28;20079;-69
2022/07/21 01:33:42;;;;;;;0.80;0.80;;;25.50;56.00;;;;;;5054536;28;20043;-69
2022/07/21 01:36:07;;;;;;;0.80;0.80;;;25.50;56.00;;;;;;5054532;28;20052;-69
2022/07/21 01:41:29;;;;;;;1.05;0.88;;;25.50;56.00;;;;;;5054315;28;20067;-69
2022/07/21 01:44:02;;;;;;;1.15;0.80;;;25.50;56.10;;;;;;5054560;28;20483;-69
2022/07/21 01:46:28;;;;;;;0.70;0.68;;;25.50;56.00;;;;;;5053337;28;20055;-69
2022/07/21 01:48:54;;;;;;;0.90;0.90;;;25.50;56.00;;;;;;5054364;28;20013;-69
2022/07/21 01:51:20;;;;;;;0.88;0.68;;;25.50;56.10;;;;;;5054294;28;20450;-69
2022/07/21 01:53:45;;;;;;;1.25;0.80;;;25.50;56.10;;;;;;5054310;28;20471;-69
2022/07/21 01:56:11;;;;;;;0.93;0.63;;;25.50;56.10;;;;;;5054038;28;20029;-69
2022/07/21 01:58:36;;;;;;;0.60;0.60;;;25.50;56.10;;;;;;5054214;28;20472;-69
2022/07/21 02:01:02;;;;;;;0.70;0.70;;;25.50;56.10;;;;;;5054356;28;20143;-69
2022/07/21 02:03:28;;;;;;;1.10;0.88;;;25.50;57.00;;;;;;5053904;28;20017;-69
2022/07/21 02:05:59;;;;;;;0.63;0.63;;;25.50;56.10;;;;;;5054282;28;20033;-69
2022/07/21 02:08:24;;;;;;;0.75;0.75;;;25.50;57.10;;;;;;5037052;28;20028;-69
2022/07/21 02:10:50;;;;;;;0.75;0.75;;;25.50;56.10;;;;;;5052805;28;20033;-69
2022/07/21 02:13:16;;;;;;;0.60;0.60;;;25.50;56.10;;;;;;5053815;28;20071;-69
2022/07/21 02:15:41;;;;;;;0.98;0.70;;;25.50;56.10;;;;;;5053833;28;20056;-69
2022/07/21 02:18:07;;;;;;;0.70;0.70;;;25.50;56.10;;;;;;5053360;28;20028;-69
2022/07/21 02:20:33;;;;;;;0.60;0.60;;;25.40;56.10;;;;;;5053858;28;20021;-69
2022/07/21 02:22:58;;;;;;;0.70;0.70;;;25.50;56.10;;;;;;5053696;28;20024;-69
2022/07/21 02:25:24;;;;;;;0.80;0.80;;;25.50;56.10;;;;;;5053467;28;20541;-69
2022/07/21 02:27:49;;;;;;;1.30;0.88;;;25.40;56.10;;;;;;5053734;28;20108;-69
2022/07/21 02:30:15;;;;;;;0.70;0.70;;;25.50;56.10;;;;;;5053732;28;20032;-69
2022/07/21 02:32:41;;;;;;;0.60;0.60;;;25.50;56.20;;;;;;5053513;28;20052;-69
2022/07/21 02:35:07;;;;;;;0.90;0.90;;;25.40;56.10;;;;;;5053384;28;20104;-69
2022/07/21 02:37:33;;;;;;;1.13;0.70;;;25.40;56.00;;;;;;5053151;28;20028;-69
2022/07/21 02:39:58;;;;;;;1.05;0.80;;;25.40;56.10;;;;;;5053465;28;20029;-69
2022/07/21 02:42:24;;;;;;;0.98;0.88;;;25.40;56.10;;;;;;5053385;28;20033;-69
2022/07/21 02:44:50;;;;;;;0.60;0.60;;;25.40;56.10;;;;;;5053415;28;20055;-69
2022/07/21 02:47:15;;;;;;;0.60;0.60;;;25.40;56.10;;;;;;5053430;28;20057;-69
2022/07/21 02:49:41;;;;;;;0.90;0.70;;;25.40;56.10;;;;;;5051844;28;20391;-69
2022/07/21 02:52:06;;;;;;;0.77;0.70;;;25.40;56.10;;;;;;5052896;28;20025;-69
2022/07/21 02:54:32;;;;;;;0.60;0.60;;;25.40;56.10;;;;;;5053076;28;20435;-69
2022/07/21 02:56:58;;;;;;;0.50;0.50;;;25.40;56.10;;;;;;5053259;28;20036;-69
2022/07/21 02:59:23;;;;;;;0.85;0.70;;;25.40;56.10;;;;;;5052851;28;20092;-69
2022/07/21 03:01:49;;;;;;;0.60;0.60;;;25.40;56.10;;;;;;5053251;28;20383;-69
2022/07/21 03:04:15;;;;;;;0.60;0.60;;;25.40;56.10;;;;;;5052981;28;20021;-69
2022/07/21 03:06:42;;;;;;;0.50;0.50;;;25.40;56.10;;;;;;5051623;28;20024;-69
2022/07/21 03:09:08;;;;;;;0.70;0.70;;;25.40;56.10;;;;;;5053168;28;20021;-69
2022/07/21 03:11:33;;;;;;;0.80;0.73;;;25.40;56.10;;;;;;5052550;28;20102;-69
2022/07/21 03:13:59;;;;;;;0.70;0.70;;;25.40;56.10;;;;;;5052792;28;20475;-69
2022/07/21 03:16:25;;;;;;;0.50;0.45;;;25.40;56.20;;;;;;5052734;28;20383;-69
2022/07/21 03:18:50;;;;;;;0.60;0.60;;;25.30;56.00;;;;;;5052671;28;20017;-69
2022/07/21 03:21:16;;;;;;;0.73;0.50;;;25.40;56.20;;;;;;5052710;28;20525;-69
2022/07/21 03:23:45;;;;;;;0.70;0.70;;;25.30;56.10;;;;;;5051468;28;20441;-69
2022/07/21 03:26:12;;;;;;;1.02;0.80;;;25.40;56.10;;;;;;5052639;28;20116;-69
2022/07/21 03:28:38;;;;;;;0.88;0.70;;;25.40;56.20;;;;;;5052121;28;20028;-69
2022/07/21 03:31:04;;;;;;;1.33;0.95;;;25.30;56.10;;;;;;5052320;28;20025;-69
2022/07/21 03:33:30;;;;;;;1.05;0.65;;;25.30;56.10;;;;;;5052429;28;20419;-69
2022/07/21 03:35:57;;;;;;;1.02;0.65;;;25.30;56.20;;;;;;5052182;28;20445;-69
2022/07/21 03:38:23;;;;;;;0.50;0.50;;;25.30;56.10;;;;;;5052614;28;20021;-69
2022/07/21 03:40:48;;;;;;;0.80;0.75;;;25.30;56.10;;;;;;5052551;28;20387;-69
2022/07/21 03:43:14;;;;;;;0.60;0.60;;;25.30;57.00;;;;;;5052464;28;20017;-69
2022/07/21 03:45:40;;;;;;;0.70;0.70;;;25.30;56.10;;;;;;5052248;28;20400;-69
2022/07/21 03:48:06;;;;;;;0.82;0.70;;;25.30;56.10;;;;;;5052439;28;20087;-69
2022/07/21 03:50:32;;;;;;;0.70;0.70;;;25.30;56.10;;;;;;5052060;28;20033;-69
2022/07/21 03:52:58;;;;;;;0.85;0.73;;;25.30;56.10;;;;;;5052539;28;20479;-69
2022/07/21 03:55:23;;;;;;;0.50;0.50;;;25.30;56.10;;;;;;5052096;28;20029;-69
2022/07/21 03:58:00;;;;;;;0.88;0.65;;;25.30;56.10;;;;;;5052353;28;20096;-69
2022/07/21 04:00:32;;;;;;;1.15;0.80;;;25.30;56.10;;;;;;5052373;28;20021;-69
2022/07/21 04:02:59;;;;;;;0.55;0.55;;;25.30;56.10;;;;;;5052412;28;20063;-69
2022/07/21 04:05:24;;;;;;;0.77;0.60;;;25.30;56.10;;;;;;5051995;28;20040;-69
2022/07/21 04:07:51;;;;;;;0.60;0.60;;;25.30;56.10;;;;;;5052139;28;20025;-69
2022/07/21 04:10:18;;;;;;;0.43;0.43;;;25.30;56.10;;;;;;5034574;28;20029;-69
2022/07/21 04:12:44;;;;;;;0.60;0.57;;;25.30;56.20;;;;;;5050807;28;20088;-69
2022/07/21 04:15:10;;;;;;;0.65;0.65;;;25.30;56.10;;;;;;5051154;28;20053;-69
2022/07/21 04:17:36;;;;;;;0.82;0.55;;;25.30;56.20;;;;;;5050797;28;20499;-69
2022/07/21 04:20:02;;;;;;;0.90;0.63;;;25.30;56.10;;;;;;5051876;28;20040;-69
2022/07/21 04:22:28;;;;;;;0.60;0.60;;;25.30;56.10;;;;;;5050979;28;20013;-69
2022/07/21 04:24:54;;;;;;;0.60;0.60;;;25.30;56.20;;;;;;5052232;28;20031;-69
2022/07/21 04:27:19;;;;;;;0.52;0.52;;;25.30;56.20;;;;;;5050644;28;20408;-69
2022/07/21 04:29:45;;;;;;;0.73;0.50;;;25.30;56.20;;;;;;5051980;28;20466;-69
2022/07/21 04:32:11;;;;;;;0.93;0.60;;;25.30;56.20;;;;;;5050620;28;20101;-69
2022/07/21 04:34:36;;;;;;;0.50;0.50;;;25.30;57.20;;;;;;5051750;28;20442;-69
2022/07/21 04:37:02;;;;;;;0.50;0.47;;;25.20;56.10;;;;;;5051881;28;20491;-69
2022/07/21 04:39:28;;;;;;;0.60;0.60;;;25.20;56.10;;;;;;5050608;28;20036;-69
2022/07/21 04:41:54;;;;;;;0.60;0.60;;;25.20;56.10;;;;;;5055160;28;20045;-69
2022/07/21 04:44:20;;;;;;;1.42;0.63;;;25.20;56.10;;;;;;5055737;28;20049;-69
2022/07/21 04:46:45;;;;;;;0.60;0.60;;;25.20;56.20;;;;;;5055523;28;20025;-69
2022/07/21 04:49:11;;;;;;;1.25;0.60;;;25.20;56.10;;;;;;5055285;28;20021;-69
2022/07/21 04:51:36;;;;;;;0.50;0.50;;;25.20;56.10;;;;;;5055442;28;20407;-69
2022/07/21 04:54:02;;;;;;;0.80;0.50;;;25.20;56.10;;;;;;5055395;28;20032;-69
2022/07/21 04:56:28;;;;;;;0.38;0.38;;;25.20;56.20;;;;;;5055393;28;20032;-69
2022/07/21 04:58:53;;;;;;;0.50;0.50;;;25.20;56.20;;;;;;5055352;28;20056;-69
2022/07/21 05:01:19;;;;;;;0.50;0.50;;;25.20;57.20;;;;;;5055321;28;20021;-69
2022/07/21 05:03:45;;;;;;;0.95;0.60;;;25.20;56.20;;;;;;5055202;28;20021;-69
2022/07/21 05:06:11;;;;;;;0.68;0.60;;;25.20;56.20;;;;;;5054092;28;20029;-69
2022/07/21 05:08:36;;;;;;;0.60;0.50;;;25.20;56.20;;;;;;5054958;28;20029;-69
2022/07/21 05:11:02;;;;;;;0.50;0.43;;;25.20;56.20;;;;;;5055191;28;20035;-69
2022/07/21 05:13:28;;;;;;;0.57;0.55;;;25.20;56.10;;;;;;5054973;28;20055;-69
2022/07/21 05:15:53;;;;;;;0.60;0.60;;;25.20;56.20;;;;;;5054904;28;20475;-69
2022/07/21 05:18:19;;;;;;;0.82;0.68;;;25.20;56.20;;;;;;5054860;28;20032;-69
2022/07/21 05:20:44;;;;;;;0.60;0.60;;;25.20;56.20;;;;;;5054968;28;20032;-69
2022/07/21 05:23:10;;;;;;;0.40;0.40;;;25.20;56.20;;;;;;5054915;28;20021;-69
2022/07/21 05:25:37;;;;;;;0.30;0.30;;;25.20;56.20;;;;;;5055039;28;20438;-69
2022/07/21 05:28:03;;;;;;;0.40;0.40;;;25.20;56.20;;;;;;5053761;28;20033;-69
2022/07/21 05:30:29;;;;;;;0.50;0.50;;;25.20;56.30;;;;;;5053559;28;20036;-69
2022/07/21 05:32:54;;;;;;;0.40;0.40;;;25.20;56.20;;;;;;5054487;28;20028;-69
2022/07/21 05:35:20;;;;;;;0.60;0.60;;;25.20;56.20;;;;;;5053258;28;20025;-69
2022/07/21 05:37:45;;;;;;;1.65;0.55;;;25.20;56.20;;;;;;5054680;28;20021;-69
2022/07/21 05:40:11;;;;;;;1.05;0.60;;;25.10;56.20;;;;;;5054699;28;20545;-69
2022/07/21 05:42:37;;;;;;;0.50;0.50;;;25.10;56.10;;;;;;5054483;28;20021;-69
2022/07/21 05:45:03;;;;;;;0.50;0.50;;;25.10;56.10;;;;;;5053443;28;20028;-69
2022/07/21 05:47:29;;;;;;;0.57;0.52;;;25.10;56.20;;;;;;5054035;28;20052;-69
2022/07/21 05:49:55;;;;;;;0.57;0.50;;;25.20;56.20;;;;;;5054295;28;20387;-69
2022/07/21 05:52:21;;;;;;;0.95;0.40;;;25.10;56.20;;;;;;5053639;28;20033;-69
2022/07/21 05:54:46;;;;;;;0.50;0.40;;;25.10;56.20;;;;;;5054405;28;20096;-69
2022/07/21 05:57:12;;;;;;;0.63;0.52;;;25.10;56.20;;;;;;5054396;28;20597;-69
2022/07/21 05:59:38;;;;;;;0.60;0.60;;;25.10;57.20;;;;;;5054342;28;20578;-69
2022/07/21 06:02:03;;;;;;;0.60;0.60;;;25.10;56.20;;;;;;5054165;28;20028;-69
2022/07/21 06:04:29;;;;;;;1.58;0.52;;;25.10;56.20;;;;;;5054204;28;20057;-69
2022/07/21 06:06:55;;;;;;;0.75;0.60;;;25.20;57.20;;;;;;5054203;28;20110;-69
2022/07/21 06:09:20;;;;;;;0.40;0.40;;;25.10;56.20;;;;;;5054211;28;20025;-69
2022/07/21 06:11:46;;;;;;;0.47;0.47;;;25.10;56.20;;;;;;5053720;28;20052;-69
2022/07/21 06:14:11;;;;;;;0.65;0.55;;;25.10;56.20;;;;;;5053992;28;20057;-69
2022/07/21 06:16:37;;;;;;;0.65;0.60;;;25.10;56.20;;;;;;5052501;28;20052;-69
2022/07/21 06:19:04;;;;;;;1.20;0.60;;;25.10;56.20;;;;;;5036268;28;20390;-69
2022/07/21 06:21:30;;;;;;;0.40;0.40;;;25.10;56.20;;;;;;5053722;28;20032;-69
2022/07/21 06:23:55;;;;;;;0.70;0.52;;;25.10;56.20;;;;;;5053953;28;20013;-69
2022/07/21 06:26:21;;;;;;;0.90;0.40;;;25.10;56.20;;;;;;5053945;28;20029;-69
2022/07/21 06:28:47;;;;;;;0.50;0.50;;;25.10;56.20;;;;;;5053689;28;20036;-69
2022/07/21 06:31:12;;;;;;;0.65;0.43;;;25.10;56.30;;;;;;5053593;28;20419;-69
2022/07/21 06:33:38;;;;;;;0.50;0.50;;;25.10;56.20;;;;;;5053442;28;20029;-69
2022/07/21 06:36:04;;;;;;;0.45;0.45;;;25.10;56.20;;;;;;5053372;28;20040;-69
2022/07/21 06:38:29;;;;;;;0.40;0.40;;;25.10;56.30;;;;;;5053514;28;20021;-69
2022/07/21 06:40:55;;;;;;;0.30;0.30;;;25.10;56.20;;;;;;5053464;28;20029;-69
2022/07/21 06:43:20;;;;;;;0.43;0.40;;;25.10;56.30;;;;;;5053375;28;20021;-69
2022/07/21 06:45:46;;;;;;;1.00;0.50;;;25.10;56.20;;;;;;5053055;28;20031;-69
2022/07/21 06:48:12;;;;;;;0.50;0.47;;;25.10;56.30;;;;;;5053235;28;20021;-69
2022/07/21 06:50:38;;;;;;;0.65;0.65;;;25.10;56.20;;;;;;5052003;28;20406;-69
2022/07/21 06:53:03;;;;;;;0.70;0.70;;;25.10;56.30;;;;;;5052146;28;20437;-69
2022/07/21 06:55:29;;;;;;;0.55;0.50;;;25.10;56.20;;;;;;5053265;28;20036;-69
2022/07/21 06:57:55;;;;;;;0.50;0.50;;;25.10;56.30;;;;;;5053099;28;20075;-69
2022/07/21 07:00:20;;;;;;;0.55;0.40;;;25.10;56.20;;;;;;5035020;28;20025;-69
2022/07/21 07:02:46;;;;;;;0.45;0.45;;;25.10;56.30;;;;;;5053077;28;20048;-69
2022/07/21 07:05:12;;;;;;;0.70;0.50;;;25.10;56.20;;;;;;5052887;28;20029;-69
2022/07/21 07:07:37;;;;;;;0.60;0.60;;;25.10;56.20;;;;;;5052996;28;20031;-69
2022/07/21 07:10:03;;;;;;;0.68;0.68;;;25.00;56.20;;;;;;5051815;28;20036;-69
2022/07/21 07:12:29;;;;;;;0.50;0.50;;;25.00;56.20;;;;;;5052687;28;20507;-69
2022/07/21 07:14:55;;;;;;;0.65;0.65;;;25.00;56.20;;;;;;5052586;28;20062;-69
2022/07/21 07:17:20;;;;;;;0.52;0.52;;;25.00;56.20;;;;;;5052792;28;20070;-69
2022/07/21 07:19:47;;;;;;;0.43;0.43;;;25.00;56.10;;;;;;5051507;28;20021;-69
2022/07/21 07:22:12;;;;;;;1.05;0.60;;;25.00;56.10;;;;;;5052829;28;20032;-69
2022/07/21 07:24:38;;;;;;;0.80;0.50;;;25.00;56.10;;;;;;5052564;28;20021;-69
2022/07/21 07:27:04;;;;;;;0.52;0.52;;;25.00;56.20;;;;;;5052808;28;20020;-69
2022/07/21 07:29:31;;;;;;;0.60;0.60;;;25.00;56.10;;;;;;5052492;28;20541;-69
2022/07/21 07:31:57;;;;;;;0.68;0.50;;;25.00;56.20;;;;;;5052710;28;20040;-69
2022/07/21 07:34:22;;;;;;;0.68;0.50;;;25.00;56.10;;;;;;5052484;28;20025;-69
2022/07/21 07:36:48;;;;;;;1.17;0.50;;;25.10;56.20;;;;;;5052290;28;20031;-69
2022/07/21 07:39:15;;;;;;;0.65;0.50;;;25.00;56.10;;;;;;5052506;28;20049;-69
2022/07/21 07:41:41;;;;;;;1.33;0.68;;;25.00;56.10;;;;;;5052607;28;20017;-69
2022/07/21 07:44:07;;;;;;;0.40;0.40;;;25.00;56.10;;;;;;5051101;28;20032;-69
2022/07/21 07:46:32;;;;;;;0.52;0.52;;;25.00;56.10;;;;;;5051303;28;20071;-69
2022/07/21 07:48:59;;;;;;;0.50;0.50;;;25.00;56.10;;;;;;5052287;28;20021;-69
2022/07/21 07:51:24;;;;;;;0.50;0.50;;;25.00;56.10;;;;;;5052692;28;20017;-69
2022/07/21 07:53:50;;;;;;;0.50;0.50;;;25.00;56.10;;;;;;5052431;28;20375;-69
2022/07/21 07:56:16;;;;;;;0.40;0.40;;;25.00;56.10;;;;;;5052475;28;20028;-69
2022/07/21 07:58:41;;;;;;;0.40;0.40;;;25.00;56.10;;;;;;5052192;28;20039;-69
2022/07/21 08:01:07;;;;;;;0.55;0.40;;;25.00;56.10;;;;;;5052231;28;20053;-69
2022/07/21 08:03:33;;;;;;;0.50;0.50;;;25.00;56.10;;;;;;5051077;28;20070;-69
2022/07/21 08:06:03;;;;;;;0.60;0.60;;;25.00;56.10;;;;;;5052258;28;20025;-69
2022/07/21 08:08:29;;;;;;;0.50;0.50;;;25.00;56.10;;;;;;5051303;28;20017;-69
2022/07/21 08:10:55;;;;;;;0.40;0.40;;;25.00;56.10;;;;;;5052059;28;20075;-69
2022/07/21 08:13:21;;;;;;;0.40;0.40;;;25.00;56.10;;;;;;5052094;28;20060;-69
2022/07/21 08:15:47;;;;;;;0.52;0.40;;;24.90;56.10;;;;;;5053525;28;20434;-69
2022/07/21 08:18:13;;;;;;;0.60;0.40;;;25.00;56.20;;;;;;5055011;28;20025;-69
2022/07/21 08:20:39;;;;;;;0.52;0.50;;;24.90;56.10;;;;;;5054981;28;20045;-69
2022/07/21 08:23:04;;;;;;;0.40;0.40;;;24.90;56.10;;;;;;5056134;28;20435;-69
2022/07/21 08:25:30;;;;;;;0.52;0.43;;;25.00;56.10;;;;;;5054762;28;20517;-69
2022/07/21 08:27:56;;;;;;;0.30;0.30;;;25.00;56.10;;;;;;5054673;28;20067;-69
2022/07/21 08:30:21;;;;;;;0.47;0.47;;;25.00;56.10;;;;;;5055816;28;20028;-69
2022/07/21 08:32:47;;;;;;;0.55;0.50;;;25.00;56.10;;;;;;5055640;28;20033;-69
2022/07/21 08:35:12;;;;;;;0.50;0.45;;;24.90;56.10;;;;;;5055744;28;20025;-69
2022/07/21 08:37:38;;;;;;;0.52;0.50;;;24.90;56.10;;;;;;5055834;28;20027;-69
2022/07/21 08:40:05;;;;;;;0.82;0.40;;;24.90;56.10;;;;;;5054370;28;20021;-69
2022/07/21 08:42:31;;;;;;;0.32;0.32;;;25.00;56.10;;;;;;5055905;28;20044;-69
2022/07/21 08:44:56;;;;;;;1.05;0.55;;;24.90;56.10;;;;;;5055652;28;20471;-69
2022/07/21 08:47:23;;;;;;;0.30;0.30;;;24.90;56.10;;;;;;5055661;28;20096;-69
2022/07/21 08:49:49;;;;;;;0.57;0.57;;;24.90;56.10;;;;;;5054186;28;20017;-69
2022/07/21 08:52:15;;;;;;;0.38;0.38;;;24.90;56.10;;;;;;5054258;28;20025;-69
2022/07/21 08:54:40;;;;;;;0.43;0.43;;;24.90;56.10;;;;;;5055199;28;20386;-69
2022/07/21 08:57:06;;;;;;;0.50;0.50;;;24.90;56.10;;;;;;5055696;28;20370;-69
2022/07/21 08:59:32;;;;;;;0.40;0.40;;;24.90;56.10;;;;;;5055407;28;20025;-69
2022/07/21 09:01:57;;;;;;;0.95;0.52;;;24.90;56.10;;;;;;5055133;28;20021;-69
2022/07/21 09:04:23;;;;;;;0.47;0.40;;;24.90;56.10;;;;;;5055345;28;20021;-69
2022/07/21 09:06:56;;;;;;;0.50;0.40;;;24.90;56.10;;;;;;5055186;28;20566;-69
2022/07/21 09:09:22;;;;;;;0.38;0.38;;;24.90;57.10;;;;;;5055094;28;20024;-69
2022/07/21 09:11:48;;;;;;;0.80;0.50;;;24.90;56.20;;;;;;5055219;28;20049;-69
2022/07/21 09:14:18;;;;;;;0.43;0.40;;;24.90;56.10;;;;;;5055045;28;20108;-69
2022/07/21 09:16:51;;;;;;;0.30;0.30;;;24.90;56.10;;;;;;5054952;28;20095;-69
2022/07/21 09:19:23;;;;;;;0.63;0.40;;;24.90;56.20;;;;;;5055077;28;20103;-69
2022/07/21 09:21:50;;;;;;;1.05;0.40;;;24.90;56.20;;;;;;5053892;28;20045;-69
2022/07/21 09:24:16;;;;;;;0.52;0.40;;;24.90;56.20;;;;;;5053681;28;20078;-69
2022/07/21 09:26:59;;;;;;;0.70;0.40;;;24.90;56.20;;;;;;5053888;28;20017;-69
2022/07/21 09:29:25;;;;;;;0.40;0.32;;;24.90;56.10;;;;;;5053731;28;20368;-69
2022/07/21 09:31:51;;;;;;;0.50;0.38;;;24.90;56.10;;;;;;5053645;28;20075;-69
2022/07/21 09:34:17;;;;;;;0.40;0.40;;;24.90;56.20;;;;;;5054601;28;20028;-69
2022/07/21 09:36:56;;;;;;;0.57;0.40;;;24.90;56.30;;;;;;5053497;28;20189;-69
2022/07/21 09:39:45;;;;;;;0.55;0.55;;;24.90;56.20;;;;;;5053294;28;20028;-69
2022/07/21 09:42:19;;;;;;;0.57;0.57;;;24.90;56.20;;;;;;5053472;28;20100;-69
2022/07/21 09:44:47;;;;;;;0.45;0.30;;;24.90;56.20;;;;;;5053272;28;20047;-69
2022/07/21 09:47:13;;;;;;;0.40;0.40;;;24.90;56.20;;;;;;5054531;28;20087;-69
2022/07/21 09:49:39;;;;;;;0.43;0.30;;;24.90;56.30;;;;;;5054389;28;20025;-69
2022/07/21 09:52:38;;;;;;;0.55;0.32;;;24.90;56.20;;;;;;5036569;28;20025;-69
2022/07/21 09:55:06;;;;;;;0.30;0.30;;;24.90;56.20;;;;;;5032341;28;20068;-69
2022/07/21 09:57:31;;;;;;;0.38;0.38;;;24.90;56.20;;;;;;5032267;28;20107;-69
2022/07/21 09:59:57;;;;;;;0.47;0.30;;;24.90;56.30;;;;;;5015789;28;20551;-69
2022/07/21 10:02:30;;;;;;;0.60;0.30;;;24.90;56.30;;;;;;5032292;28;20017;-69
2022/07/21 10:04:58;;;;;;;0.73;0.45;;;24.90;56.30;;;;;;5031932;28;20044;-69
2022/07/21 10:07:25;;;;;;;1.02;0.40;;;24.90;56.30;;;;;;5015771;28;20448;-69
2022/07/21 10:09:50;;;;;;;0.40;0.30;;;24.90;56.30;;;;;;5032033;28;20025;-69
2022/07/21 10:12:16;;;;;;;0.43;0.40;;;24.90;56.30;;;;;;5015553;28;20068;-69
2022/07/21 10:14:42;;;;;;;0.40;0.40;;;24.90;56.30;;;;;;5031803;28;20108;-69
2022/07/21 10:17:08;;;;;;;0.40;0.40;;;24.90;56.30;;;;;;5015539;28;20056;-69
2022/07/21 10:19:56;;;;;;;0.98;0.35;;;24.90;56.30;;;;;;5031736;28;20606;-69
2022/07/21 10:22:42;;;;;;;0.50;0.50;;;24.90;56.30;;;;;;5031749;28;20025;-69
2022/07/21 10:25:08;;;;;;;0.35;0.35;;;24.90;56.30;;;;;;5031827;28;20045;-69
2022/07/21 10:27:33;;;;;;;0.30;0.20;;;24.90;56.40;;;;;;5015163;28;20029;-69
2022/07/21 10:30:00;;;;;;;0.30;0.30;;;24.90;56.40;;;;;;5036716;28;20049;-69
2022/07/21 10:32:34;;;;;;;0.38;0.30;;;24.90;56.40;;;;;;5035926;28;20051;-69
2022/07/21 10:35:21;;;;;;;0.40;0.40;;;24.90;56.40;;;;;;5052352;28;20026;-69
2022/07/21 10:37:47;;;;;;;0.45;0.40;;;24.90;56.40;;;;;;5048307;28;20079;-69
2022/07/21 10:40:19;;;;;;;0.55;0.50;;;24.90;56.50;;;;;;5053304;28;20083;-69
2022/07/21 10:43:20;;;;;;;0.65;0.50;;;24.90;56.40;;;;;;5053422;28;20105;-69
2022/07/21 10:45:46;;;;;;;1.10;0.60;;;24.90;56.40;;;;;;5052522;28;20025;-69
2022/07/21 10:48:50;;;;;;;0.50;0.30;;;24.90;56.30;;;;;;5052127;28;20027;-69
2022/07/21 10:51:16;;;;;;;0.50;0.30;;;24.90;56.40;;;;;;5032695;28;20045;-69
2022/07/21 10:53:43;;;;;;;0.30;0.30;;;24.90;56.50;;;;;;5033350;28;20029;-69
2022/07/21 10:56:09;;;;;;;0.40;0.32;;;24.90;56.40;;;;;;5033166;28;20060;-69
2022/07/21 10:58:38;;;;;;;0.40;0.30;;;24.90;56.50;;;;;;5032122;28;20053;-69
2022/07/21 11:01:04;;;;;;;0.82;0.30;;;24.90;56.40;;;;;;5033076;28;20136;-69
2022/07/21 11:03:38;;;;;;;0.40;0.40;;;24.90;56.50;;;;;;5032057;28;20032;-69
2022/07/21 11:06:09;;;;;;;0.25;0.25;;;24.90;56.50;;;;;;5032734;28;20519;-69
2022/07/21 11:08:44;;;;;;;0.52;0.40;;;24.90;56.40;;;;;;5033083;28;20144;-69
2022/07/21 11:11:20;;;;;;;0.65;0.50;;;24.90;56.40;;;;;;5031738;28;20036;-69
2022/07/21 11:14:17;;;;;;;0.90;0.43;;;24.90;56.40;;;;;;5032971;28;20029;-69
2022/07/21 11:16:43;;;;;;;0.40;0.40;;;24.90;56.50;;;;;;5039873;28;20034;-69
2022/07/21 11:19:29;;;;;;;0.32;0.30;;;24.90;56.60;;;;;;5033083;28;20045;-69
2022/07/21 11:21:55;;;;;;;0.43;0.32;;;24.90;57.50;;;;;;5031589;28;20018;-69
2022/07/21 11:24:21;;;;;;;0.82;0.40;;;24.90;56.40;;;;;;5032962;28;20029;-69
2022/07/21 11:26:59;;;;;;;0.30;0.30;;;24.90;56.40;;;;;;5032664;28;20033;-69
2022/07/21 11:29:24;;;;;;;0.82;0.40;;;24.90;56.50;;;;;;5031861;28;20040;-69
2022/07/21 11:31:50;;;;;;;0.52;0.50;;;24.90;56.40;;;;;;5033200;28;20025;-69
2022/07/21 11:34:16;;;;;;;0.32;0.32;;;24.90;56.40;;;;;;5050198;28;20552;-69
2022/07/21 11:36:41;;;;;;;0.73;0.40;;;24.80;56.40;;;;;;5052601;28;20025;-69
2022/07/21 11:39:09;;;;;;;0.30;0.30;;;24.90;56.30;;;;;;5051210;28;20021;-69
2022/07/21 11:41:36;;;;;;;0.55;0.40;;;24.90;56.40;;;;;;5052554;28;20017;-69
2022/07/21 11:44:02;;;;;;;0.32;0.30;;;24.90;56.50;;;;;;5052422;28;20048;-69
2022/07/21 11:46:27;;;;;;;0.30;0.30;;;24.90;56.40;;;;;;5052495;28;20062;-69
2022/07/21 11:49:04;;;;;;;0.55;0.47;;;24.90;56.50;;;;;;5050994;28;20029;-69
2022/07/21 11:51:29;;;;;;;0.20;0.20;;;24.90;56.40;;;;;;5033931;28;20112;-69
2022/07/21 11:53:55;;;;;;;0.93;0.32;;;24.80;56.40;;;;;;5051197;28;20101;-69
2022/07/21 11:56:21;;;;;;;0.28;0.28;;;24.80;56.40;;;;;;5051263;28;20060;-69
2022/07/21 11:58:48;;;;;;;0.45;0.32;;;24.80;56.40;;;;;;5052493;28;20029;-69
2022/07/21 12:01:13;;;;;;;0.50;0.30;;;24.90;56.50;;;;;;5052381;28;20017;-69
2022/07/21 12:03:51;;;;;;;0.40;0.40;;;24.80;56.40;;;;;;5052150;28;20403;-69
2022/07/21 12:06:17;;;;;;;0.65;0.30;;;24.90;56.50;;;;;;5052308;28;20029;-69
2022/07/21 12:08:43;;;;;;;0.35;0.30;;;24.90;56.50;;;;;;5052325;28;20025;-69
2022/07/21 12:11:12;;;;;;;0.63;0.32;;;24.90;56.60;;;;;;5051970;28;20029;-69
2022/07/21 12:14:03;;;;;;;0.40;0.40;;;24.90;56.60;;;;;;5052091;28;20029;-69
2022/07/21 12:16:29;;;;;;;0.30;0.30;;;24.90;56.70;;;;;;5050920;28;20033;-69
2022/07/21 12:19:11;;;;;;;1.02;0.32;;;24.80;56.60;;;;;;5050782;28;20017;-69
2022/07/21 12:21:46;;;;;;;0.40;0.30;;;24.90;56.60;;;;;;5052132;28;20028;-69
2022/07/21 12:24:12;;;;;;;0.38;0.30;;;24.90;56.70;;;;;;5052119;28;20024;-69
2022/07/21 12:26:38;;;;;;;0.85;0.40;;;24.90;56.70;;;;;;5051856;28;20033;-69
2022/07/21 12:29:03;;;;;;;0.63;0.35;;;24.90;56.70;;;;;;5052116;28;20025;-69
2022/07/21 12:31:29;;;;;;;0.50;0.40;;;24.90;56.70;;;;;;5052105;28;20029;-69
2022/07/21 12:33:55;;;;;;;0.88;0.30;;;24.90;56.70;;;;;;5033739;28;20039;-69
2022/07/21 12:36:21;;;;;;;0.47;0.47;;;24.90;56.70;;;;;;5050699;28;20391;-69
2022/07/21 12:38:48;;;;;;;0.70;0.30;;;24.90;56.60;;;;;;5050636;28;20025;-69
2022/07/21 12:41:18;;;;;;;0.30;0.30;;;24.90;56.70;;;;;;5052041;28;20051;-69
2022/07/21 12:43:56;;;;;;;0.30;0.30;;;24.90;56.70;;;;;;5052027;28;20027;-69
2022/07/21 12:46:30;;;;;;;0.20;0.20;;;24.80;56.60;;;;;;5050699;28;20025;-69
2022/07/21 12:49:09;;;;;;;0.30;0.30;;;24.90;56.70;;;;;;5051827;28;20502;-69
2022/07/21 12:51:34;;;;;;;0.30;0.30;;;24.90;56.70;;;;;;5050619;28;20433;-69